createdAt,value
2018-11-21T00:00:00.779Z,659.2
2018-11-21T00:01:02.688Z,658.9
2018-11-21T00:02:04.570Z,659.4
2018-11-21T00:03:06.486Z,659
2018-11-21T00:04:08.915Z,659
2018-11-21T00:05:11.350Z,659
2018-11-21T00:06:13.482Z,659.4
2018-11-21T00:07:15.906Z,659.3
2018-11-21T00:08:18.358Z,659.3
2018-11-21T00:09:20.784Z,659
2018-11-21T00:10:22.939Z,659.6
2018-11-21T00:11:25.110Z,659.4
2018-11-21T00:12:27.288Z,658.9
2018-11-21T00:13:29.719Z,658.5
2018-11-21T00:14:32.149Z,658.4
2018-11-21T00:15:34.306Z,658.5
2018-11-21T00:16:36.477Z,658.5
2018-11-21T00:17:38.641Z,658.5
2018-11-21T00:18:40.799Z,658.6
2018-11-21T00:19:43.228Z,658.6
2018-11-21T00:20:45.408Z,658.2
2018-11-21T00:21:47.548Z,658.4
2018-11-21T00:22:49.706Z,658.4
2018-11-21T00:23:52.141Z,658.8
2018-11-21T00:24:54.567Z,658.7
2018-11-21T00:25:56.446Z,658.3
2018-11-21T00:26:58.620Z,658.6
2018-11-21T00:28:00.507Z,658.6
2018-11-21T00:29:02.934Z,659.1
2018-11-21T00:30:04.798Z,658.5
2018-11-21T00:31:06.680Z,658.4
2018-11-21T00:32:08.826Z,658.2
2018-11-21T00:33:11.268Z,657.4
2018-11-21T00:34:13.700Z,657.6
2018-11-21T00:35:15.567Z,657.8
2018-11-21T00:36:17.466Z,658.2
2018-11-21T00:37:19.364Z,657.5
2018-11-21T00:38:21.256Z,657.8
2018-11-21T00:39:23.687Z,657.9
2018-11-21T00:40:26.117Z,657.6
2018-11-21T00:41:28.275Z,657.7
2018-11-21T00:42:30.695Z,658.1
2018-11-21T00:43:32.568Z,658
2018-11-21T00:44:34.725Z,657.9
2018-11-21T00:45:36.588Z,658.1
2018-11-21T00:46:39.003Z,658
2018-11-21T00:47:41.444Z,657.9
2018-11-21T00:48:43.318Z,658
2018-11-21T00:49:45.204Z,658.3
2018-11-21T00:50:47.296Z,658.3
2018-11-21T00:51:49.429Z,658.2
2018-11-21T00:52:51.574Z,657.7
2018-11-21T00:53:53.461Z,658
2018-11-21T00:54:55.886Z,658
2018-11-21T00:55:58.317Z,657.6
2018-11-21T00:57:01.747Z,658
2018-11-21T00:58:03.358Z,657.8
2018-11-21T00:59:05.511Z,657.7
2018-11-21T01:00:07.674Z,657.7
2018-11-21T01:01:09.535Z,657.5
2018-11-21T01:02:11.417Z,657.6
2018-11-21T01:03:13.848Z,657.3
2018-11-21T01:04:15.998Z,657.5
2018-11-21T01:05:18.134Z,657.1
2018-11-21T01:06:19.721Z,657.3
2018-11-21T01:07:22.148Z,657.4
2018-11-21T01:08:24.588Z,657.6
2018-11-21T01:09:27.012Z,657.7
2018-11-21T01:10:29.147Z,657.3
2018-11-21T01:11:31.599Z,657.9
2018-11-21T01:12:34.021Z,657.3
2018-11-21T01:13:36.457Z,657.6
2018-11-21T01:14:38.357Z,657.2
2018-11-21T01:15:40.495Z,657.7
2018-11-21T01:16:42.114Z,657.5
2018-11-21T01:17:44.269Z,657.4
2018-11-21T01:18:46.148Z,657
2018-11-21T01:19:48.580Z,657.6
2018-11-21T01:20:51.008Z,657.2
2018-11-21T01:21:53.174Z,657.6
2018-11-21T01:22:55.064Z,657.9
2018-11-21T01:23:57.497Z,658.1
2018-11-21T01:24:59.377Z,657.6
2018-11-21T01:26:01.239Z,657.6
2018-11-21T01:27:03.386Z,658.1
2018-11-21T01:28:05.249Z,657.5
2018-11-21T01:29:07.674Z,657.6
2018-11-21T01:30:10.106Z,657.4
2018-11-21T01:31:12.520Z,657.5
2018-11-21T01:32:14.664Z,657.5
2018-11-21T01:33:17.412Z,657.6
2018-11-21T01:34:19.831Z,657.3
2018-11-21T01:35:22.259Z,657.5
2018-11-21T01:36:24.396Z,657.3
2018-11-21T01:37:26.535Z,657.6
2018-11-21T01:38:28.128Z,657.5
2018-11-21T01:39:30.554Z,657.8
2018-11-21T01:40:32.150Z,657.6
2018-11-21T01:41:34.285Z,657.9
2018-11-21T01:42:36.420Z,658
2018-11-21T01:43:38.569Z,657.9
2018-11-21T01:44:40.725Z,658
2018-11-21T01:45:43.148Z,657.8
2018-11-21T01:46:45.589Z,658.1
2018-11-21T01:47:47.742Z,658.2
2018-11-21T01:48:50.198Z,658.2
2018-11-21T01:49:52.376Z,657.9
2018-11-21T01:50:54.798Z,658.2
2018-11-21T01:51:56.984Z,657.6
2018-11-21T01:52:58.872Z,657.9
2018-11-21T01:54:01.301Z,658
2018-11-21T01:55:03.178Z,657.9
2018-11-21T01:56:05.609Z,658.1
2018-11-21T01:57:08.027Z,658.6
2018-11-21T01:58:09.904Z,658.6
2018-11-21T01:59:12.338Z,658.1
2018-11-21T02:00:14.205Z,658.4
2018-11-21T02:01:16.372Z,658.3
2018-11-21T02:02:18.500Z,658.2
2018-11-21T02:03:20.645Z,658
2018-11-21T02:04:22.512Z,658.2
2018-11-21T02:05:24.389Z,657.8
2018-11-21T02:06:26.538Z,657.9
2018-11-21T02:07:28.708Z,658.1
2018-11-21T02:08:31.135Z,657.9
2018-11-21T02:09:33.294Z,658.3
2018-11-21T02:10:35.439Z,658.4
2018-11-21T02:11:37.042Z,658.7
2018-11-21T02:12:38.961Z,658.7
2018-11-21T02:13:41.126Z,658.8
2018-11-21T02:14:43.553Z,658.7
2018-11-21T02:15:45.416Z,658.4
2018-11-21T02:16:47.840Z,658.5
2018-11-21T02:17:50.004Z,658.4
2018-11-21T02:18:52.426Z,658.5
2018-11-21T02:19:54.856Z,658
2018-11-21T02:20:57.274Z,657.8
2018-11-21T02:21:59.720Z,657.6
2018-11-21T02:23:02.155Z,657.2
2018-11-21T02:24:04.307Z,657.8
2018-11-21T02:25:06.444Z,657.5
2018-11-21T02:26:08.901Z,657.9
2018-11-21T02:27:11.036Z,657.8
2018-11-21T02:28:12.892Z,658
2018-11-21T02:29:15.028Z,657.5
2018-11-21T02:30:17.454Z,657.9
2018-11-21T02:31:19.877Z,657.8
2018-11-21T02:32:22.041Z,657.8
2018-11-21T02:33:24.465Z,657.3
2018-11-21T02:34:26.903Z,657.7
2018-11-21T02:35:29.367Z,657.6
2018-11-21T02:36:31.813Z,657.5
2018-11-21T02:37:34.247Z,657.6
2018-11-21T02:38:36.381Z,657.4
2018-11-21T02:39:38.242Z,657.5
2018-11-21T02:40:39.852Z,657.8
2018-11-21T02:41:41.720Z,657.5
2018-11-21T02:42:44.142Z,657.8
2018-11-21T02:43:46.017Z,657.5
2018-11-21T02:44:48.154Z,657.6
2018-11-21T02:45:50.306Z,657.4
2018-11-21T02:46:52.463Z,657.7
2018-11-21T02:47:54.882Z,657.8
2018-11-21T02:48:56.228Z,657.2
2018-11-21T02:49:58.397Z,657
2018-11-21T02:50:59.702Z,657
2018-11-21T02:52:01.320Z,656.4
2018-11-21T02:53:03.188Z,655.9
2018-11-21T02:54:05.634Z,655.9
2018-11-21T02:55:08.058Z,655.5
2018-11-21T02:56:10.492Z,655.3
2018-11-21T02:57:12.937Z,655.3
2018-11-21T02:58:15.367Z,655.3
2018-11-21T02:59:17.551Z,655.3
2018-11-21T03:00:19.983Z,655.2
2018-11-21T03:01:21.559Z,654.8
2018-11-21T03:02:23.983Z,654.9
2018-11-21T03:03:25.304Z,654.7
2018-11-21T03:04:27.738Z,654.7
2018-11-21T03:05:29.909Z,654.5
2018-11-21T03:06:31.798Z,654.2
2018-11-21T03:07:33.959Z,653.8
2018-11-21T03:08:36.094Z,653.8
2018-11-21T03:09:37.695Z,653.9
2018-11-21T03:10:39.857Z,653.5
2018-11-21T03:11:42.003Z,653.3
2018-11-21T03:12:44.157Z,653.5
2018-11-21T03:13:46.032Z,653.7
2018-11-21T03:14:48.457Z,653.4
2018-11-21T03:15:50.885Z,653.4
2018-11-21T03:16:52.747Z,653.4
2018-11-21T03:17:54.926Z,653.2
2018-11-21T03:18:57.085Z,652.9
2018-11-21T03:19:59.253Z,652.8
2018-11-21T03:21:01.706Z,652.7
2018-11-21T03:22:03.847Z,652.7
2018-11-21T03:23:06.000Z,652.8
2018-11-21T03:24:08.136Z,652.3
2018-11-21T03:25:10.264Z,652.6
2018-11-21T03:26:12.397Z,652.4
2018-11-21T03:27:14.279Z,652.6
2018-11-21T03:28:16.434Z,652.4
2018-11-21T03:29:18.586Z,652.2
2018-11-21T03:30:20.720Z,652.7
2018-11-21T03:31:22.927Z,652.5
2018-11-21T03:32:25.362Z,652.6
2018-11-21T03:33:27.793Z,652.5
2018-11-21T03:34:29.960Z,652.3
2018-11-21T03:35:32.370Z,652.2
2018-11-21T03:36:34.523Z,651.7
2018-11-21T03:37:36.395Z,651.6
2018-11-21T03:38:38.828Z,651.9
2018-11-21T03:39:40.716Z,651.5
2018-11-21T03:40:42.885Z,651.6
2018-11-21T03:41:45.029Z,651.6
2018-11-21T03:42:47.453Z,651.7
2018-11-21T03:43:49.597Z,651.8
2018-11-21T03:44:52.047Z,651.8
2018-11-21T03:45:53.917Z,651.3
2018-11-21T03:46:56.338Z,651.5
2018-11-21T03:47:58.468Z,652
2018-11-21T03:49:00.894Z,652.2
2018-11-21T03:50:03.048Z,652.3
2018-11-21T03:51:05.221Z,652.1
2018-11-21T03:52:07.652Z,651.8
2018-11-21T03:53:09.508Z,651.8
2018-11-21T03:54:11.670Z,652
2018-11-21T03:55:13.818Z,651.7
2018-11-21T03:56:16.241Z,652
2018-11-21T03:57:18.665Z,652.1
2018-11-21T03:58:21.098Z,652.2
2018-11-21T03:59:23.267Z,652
2018-11-21T04:00:25.695Z,652.4
2018-11-21T04:01:27.857Z,652
2018-11-21T04:02:30.028Z,651.8
2018-11-21T04:03:31.606Z,652
2018-11-21T04:04:33.469Z,651.7
2018-11-21T04:05:35.351Z,652.1
2018-11-21T04:06:37.227Z,651.3
2018-11-21T04:07:39.145Z,651.3
2018-11-21T04:09:46.018Z,651.3
2018-11-21T04:10:47.888Z,651.1
2018-11-21T04:11:50.307Z,651
2018-11-21T04:12:52.455Z,650.6
2018-11-21T04:13:54.618Z,650.9
2018-11-21T04:14:56.777Z,650.8
2018-11-21T04:15:59.214Z,650.7
2018-11-21T04:17:01.091Z,651.1
2018-11-21T04:18:02.962Z,650.4
2018-11-21T04:19:05.105Z,650.6
2018-11-21T04:20:07.537Z,650.7
2018-11-21T04:21:09.978Z,650.7
2018-11-21T04:22:12.401Z,650.5
2018-11-21T04:23:14.528Z,650
2018-11-21T04:24:16.660Z,650.3
2018-11-21T04:25:18.817Z,650.2
2018-11-21T04:26:20.970Z,650.2
2018-11-21T04:27:23.391Z,649.9
2018-11-21T04:28:25.276Z,649.8
2018-11-21T04:29:27.428Z,649.6
2018-11-21T04:30:29.853Z,649.9
2018-11-21T04:31:32.286Z,650.1
2018-11-21T04:32:34.444Z,649.8
2018-11-21T04:33:35.788Z,650.1
2018-11-21T04:34:37.689Z,650
2018-11-21T04:35:40.133Z,649.6
2018-11-21T04:36:41.996Z,650.3
2018-11-21T04:37:45.538Z,650.1
2018-11-21T04:38:47.984Z,650.3
2018-11-21T04:39:49.867Z,650.6
2018-11-21T04:40:52.049Z,649.8
2018-11-21T04:41:54.497Z,650.1
2018-11-21T04:42:56.675Z,649.9
2018-11-21T04:43:58.848Z,650
2018-11-21T04:45:01.030Z,649.9
2018-11-21T04:46:03.475Z,649.7
2018-11-21T04:47:05.637Z,649.8
2018-11-21T04:48:07.806Z,649.2
2018-11-21T04:49:10.244Z,649.1
2018-11-21T04:50:12.681Z,649
2018-11-21T04:51:14.838Z,649
2018-11-21T04:52:17.024Z,648.9
2018-11-21T04:53:19.197Z,648.9
2018-11-21T04:54:21.100Z,649.1
2018-11-21T04:55:23.301Z,648.8
2018-11-21T04:56:25.798Z,649.3
2018-11-21T04:57:28.249Z,649.5
2018-11-21T04:58:30.429Z,648.9
2018-11-21T04:59:32.320Z,649
2018-11-21T05:00:34.496Z,648.6
2018-11-21T05:01:36.688Z,648.5
2018-11-21T05:02:38.392Z,648.2
2018-11-21T05:03:40.566Z,648.2
2018-11-21T05:04:42.990Z,647.9
2018-11-21T05:05:45.413Z,648
2018-11-21T05:06:47.837Z,647.9
2018-11-21T05:07:50.273Z,647.6
2018-11-21T05:08:52.424Z,647.5
2018-11-21T05:09:54.595Z,647.4
2018-11-21T05:10:56.748Z,647.2
2018-11-21T05:11:58.603Z,647.1
2018-11-21T05:13:00.764Z,646.5
2018-11-21T05:14:02.665Z,646.4
2018-11-21T05:15:05.076Z,646.6
2018-11-21T05:16:07.507Z,646.5
2018-11-21T05:17:09.098Z,646.5
2018-11-21T05:18:11.268Z,646.2
2018-11-21T05:19:13.417Z,646.4
2018-11-21T05:20:15.573Z,646.2
2018-11-21T05:21:17.720Z,645.8
2018-11-21T05:22:19.614Z,645.8
2018-11-21T05:23:21.766Z,645.6
2018-11-21T05:24:23.658Z,645.3
2018-11-21T05:25:25.529Z,645.4
2018-11-21T05:26:27.694Z,645.5
2018-11-21T05:27:30.127Z,645.3
2018-11-21T05:28:32.010Z,645.1
2018-11-21T05:29:34.173Z,645.5
2018-11-21T05:30:36.308Z,645.4
2018-11-21T05:31:38.198Z,645.2
2018-11-21T05:32:40.348Z,645.6
2018-11-21T05:33:41.698Z,645.2
2018-11-21T05:34:44.128Z,644.9
2018-11-21T05:35:46.290Z,644.7
2018-11-21T05:36:48.450Z,644.6
2018-11-21T05:37:50.038Z,644.2
2018-11-21T05:38:52.202Z,644
2018-11-21T05:39:53.791Z,643.6
2018-11-21T05:40:55.662Z,643.4
2018-11-21T05:41:58.080Z,642.9
2018-11-21T05:43:00.509Z,642.6
2018-11-21T05:44:02.388Z,642.8
2018-11-21T05:45:04.825Z,642.5
2018-11-21T05:46:07.237Z,642.2
2018-11-21T05:47:09.398Z,642.6
2018-11-21T05:48:11.549Z,642.3
2018-11-21T05:49:13.978Z,642.7
2018-11-21T05:50:16.137Z,642.2
2018-11-21T05:51:18.294Z,642.5
2018-11-21T05:52:20.460Z,642.8
2018-11-21T05:53:22.614Z,642.7
2018-11-21T05:54:24.228Z,642.4
2018-11-21T05:55:26.098Z,642.3
2018-11-21T05:56:27.976Z,642.1
2018-11-21T05:57:30.411Z,641.8
2018-11-21T05:58:32.400Z,641.7
2018-11-21T05:59:34.598Z,641.8
2018-11-21T06:00:36.491Z,641.6
2018-11-21T06:01:38.660Z,641.5
2018-11-21T06:02:40.800Z,641.7
2018-11-21T06:03:43.226Z,641.2
2018-11-21T06:04:45.378Z,641
2018-11-21T06:05:47.524Z,641
2018-11-21T06:06:49.949Z,641.1
2018-11-21T06:07:52.380Z,640.8
2018-11-21T06:08:54.818Z,640.6
2018-11-21T06:09:57.248Z,640.7
2018-11-21T06:10:59.387Z,640.9
2018-11-21T06:13:06.798Z,641.1
2018-11-21T06:14:09.237Z,641.3
2018-11-21T06:15:11.398Z,640.7
2018-11-21T06:16:13.273Z,641.2
2018-11-21T06:17:15.424Z,640.9
2018-11-21T06:18:17.576Z,640.9
2018-11-21T06:19:19.736Z,640.9
2018-11-21T06:20:21.878Z,640.7
2018-11-21T06:21:23.768Z,640.9
2018-11-21T06:22:26.574Z,640.9
2018-11-21T06:23:28.738Z,640.6
2018-11-21T06:24:30.890Z,640.8
2018-11-21T06:25:33.319Z,641.2
2018-11-21T06:26:35.221Z,641
2018-11-21T06:27:37.379Z,640.8
2018-11-21T06:28:39.538Z,641
2018-11-21T06:29:41.421Z,641.3
2018-11-21T06:30:43.299Z,641.1
2018-11-21T06:31:45.739Z,640.9
2018-11-21T06:32:48.165Z,640.9
2018-11-21T06:33:50.053Z,640.6
2018-11-21T06:34:52.487Z,640.4
2018-11-21T06:35:54.918Z,640.6
2018-11-21T06:36:57.346Z,640.5
2018-11-21T06:37:59.477Z,640.5
2018-11-21T06:39:01.909Z,640.6
2018-11-21T06:40:04.339Z,639.8
2018-11-21T06:41:06.508Z,640.2
2018-11-21T06:42:08.949Z,640
2018-11-21T06:43:11.384Z,640.2
2018-11-21T06:44:13.833Z,640.3
2018-11-21T06:45:16.000Z,640.1
2018-11-21T06:46:18.159Z,640.5
2018-11-21T06:47:20.587Z,640.6
2018-11-21T06:48:22.740Z,640.8
2018-11-21T06:49:24.889Z,640.2
2018-11-21T06:50:27.322Z,640.2
2018-11-21T06:52:35.683Z,639.6
2018-11-21T06:53:38.117Z,639.6
2018-11-21T06:54:40.548Z,639.2
2018-11-21T06:55:42.969Z,639.4
2018-11-21T06:56:46.516Z,639.1
2018-11-21T06:57:48.928Z,638.7
2018-11-21T06:59:56.328Z,639.1
2018-11-21T07:00:58.249Z,638.9
2018-11-21T07:02:00.687Z,639.1
2018-11-21T07:03:03.119Z,638.7
2018-11-21T07:04:05.561Z,638.5
2018-11-21T07:05:07.719Z,638.1
2018-11-21T07:06:10.159Z,638.3
2018-11-21T07:07:12.583Z,637.9
2018-11-21T07:08:15.012Z,637.7
2018-11-21T07:09:17.430Z,637.6
2018-11-21T07:10:19.864Z,637.2
2018-11-21T07:11:22.292Z,637.5
2018-11-21T07:12:24.427Z,636.8
2018-11-21T07:13:26.850Z,637.4
2018-11-21T07:14:29.006Z,637.2
2018-11-21T07:15:31.431Z,637.2
2018-11-21T07:16:33.858Z,637.5
2018-11-21T07:17:36.288Z,637.6
2018-11-21T07:18:38.741Z,637.5
2018-11-21T07:19:40.651Z,637.4
2018-11-21T07:20:42.798Z,637.2
2018-11-21T07:21:44.929Z,636.6
2018-11-21T07:22:47.352Z,636.7
2018-11-21T07:23:49.774Z,636.7
2018-11-21T07:24:52.201Z,636.3
2018-11-21T07:25:54.638Z,636.3
2018-11-21T07:26:57.068Z,636
2018-11-21T07:27:59.487Z,636.3
2018-11-21T07:29:01.641Z,636.5
2018-11-21T07:30:04.072Z,636.3
2018-11-21T07:31:06.238Z,636.4
2018-11-21T07:32:08.691Z,636.4
2018-11-21T07:33:10.856Z,636
2018-11-21T07:34:13.291Z,635.9
2018-11-21T07:36:20.705Z,636
2018-11-21T07:37:23.129Z,635.3
2018-11-21T07:38:25.559Z,634.8
2018-11-21T07:39:28.012Z,635
2018-11-21T07:40:30.439Z,635.1
2018-11-21T07:41:32.865Z,634.9
2018-11-21T07:42:35.292Z,634.8
2018-11-21T07:43:37.723Z,635
2018-11-21T07:44:40.163Z,635.1
2018-11-21T07:45:42.597Z,635.3
2018-11-21T07:46:45.021Z,635.4
2018-11-21T07:47:47.169Z,635.4
2018-11-21T07:48:49.047Z,635.3
2018-11-21T07:49:51.467Z,635.5
2018-11-21T07:50:53.902Z,635.6
2018-11-21T07:51:56.327Z,635.6
2018-11-21T07:52:58.774Z,635.1
2018-11-21T07:54:01.201Z,635.1
2018-11-21T07:55:03.620Z,635.3
2018-11-21T07:56:06.056Z,635.4
2018-11-21T07:57:08.185Z,635
2018-11-21T07:58:10.612Z,634.8
2018-11-21T07:59:13.051Z,635.1
2018-11-21T08:00:15.503Z,634.8
2018-11-21T08:01:17.937Z,634.2
2018-11-21T08:02:20.377Z,634.2
2018-11-21T08:03:22.807Z,634.5
2018-11-21T08:04:25.229Z,634.2
2018-11-21T08:05:27.683Z,634.2
2018-11-21T08:06:30.115Z,634.2
2018-11-21T08:07:32.542Z,634
2018-11-21T08:08:34.689Z,633.3
2018-11-21T08:09:37.115Z,633.4
2018-11-21T08:10:39.539Z,633.4
2018-11-21T08:11:41.677Z,633.5
2018-11-21T08:12:44.116Z,633.3
2018-11-21T08:13:46.279Z,633.5
2018-11-21T08:14:48.702Z,633.5
2018-11-21T08:15:51.125Z,633.6
2018-11-21T08:16:53.765Z,633.8
2018-11-21T08:17:56.207Z,634
2018-11-21T08:18:58.361Z,634.2
2018-11-21T08:20:00.799Z,633.7
2018-11-21T08:21:03.239Z,633.5
2018-11-21T08:22:05.669Z,633.4
2018-11-21T08:23:08.112Z,633.3
2018-11-21T08:24:10.546Z,633.3
2018-11-21T08:25:12.982Z,633.2
2018-11-21T08:26:15.131Z,633.1
2018-11-21T08:27:17.566Z,633.3
2018-11-21T08:28:19.979Z,633.1
2018-11-21T08:29:22.427Z,632.9
2018-11-21T08:30:24.859Z,633
2018-11-21T08:31:27.275Z,632.8
2018-11-21T08:32:29.705Z,633
2018-11-21T08:34:37.115Z,632.5
2018-11-21T08:35:39.536Z,632.6
2018-11-21T08:36:41.690Z,632.2
2018-11-21T08:37:43.842Z,632.3
2018-11-21T08:38:46.311Z,632.1
2018-11-21T08:39:48.742Z,631.7
2018-11-21T08:40:51.174Z,631.4
2018-11-21T08:41:53.600Z,631.7
2018-11-21T08:42:55.753Z,631.7
2018-11-21T08:45:00.447Z,631.5
2018-11-21T08:46:02.881Z,632.2
2018-11-21T08:47:05.308Z,631.6
2018-11-21T08:48:07.734Z,631.9
2018-11-21T08:49:09.895Z,631.8
2018-11-21T08:50:12.319Z,631.7
2018-11-21T08:51:14.194Z,631.7
2018-11-21T08:52:16.620Z,632.1
2018-11-21T08:53:19.049Z,632
2018-11-21T08:54:21.471Z,632.2
2018-11-21T08:55:23.909Z,632.1
2018-11-21T08:56:26.320Z,632.3
2018-11-21T08:57:28.749Z,632.2
2018-11-21T08:58:31.176Z,632.5
2018-11-21T08:59:33.618Z,632.5
2018-11-21T09:00:36.045Z,632.5
2018-11-21T09:01:38.477Z,632.6
2018-11-21T09:02:40.912Z,632.6
2018-11-21T09:03:43.339Z,632.4
2018-11-21T09:04:45.780Z,632.1
2018-11-21T09:05:48.206Z,631.4
2018-11-21T09:06:50.641Z,631.3
2018-11-21T09:07:53.079Z,631
2018-11-21T09:08:55.522Z,630.3
2018-11-21T09:09:57.950Z,630.3
2018-11-21T09:11:00.371Z,630
2018-11-21T09:12:02.793Z,630
2018-11-21T09:13:04.679Z,629.9
2018-11-21T09:14:07.118Z,629.8
2018-11-21T09:15:09.547Z,629.6
2018-11-21T09:16:11.994Z,629.9
2018-11-21T09:17:14.422Z,629.9
2018-11-21T09:18:16.855Z,630.1
2018-11-21T09:19:19.276Z,630.8
2018-11-21T09:20:21.449Z,630.8
2018-11-21T09:21:23.586Z,631.2
2018-11-21T09:22:25.860Z,631.1
2018-11-21T09:23:28.287Z,631.6
2018-11-21T09:24:30.748Z,631.4
2018-11-21T09:25:32.906Z,631.2
2018-11-21T09:26:35.040Z,631.1
2018-11-21T09:27:37.467Z,630.8
2018-11-21T09:28:39.886Z,630.9
2018-11-21T09:29:42.309Z,630.8
2018-11-21T09:30:44.745Z,630.5
2018-11-21T09:31:47.170Z,630.5
2018-11-21T09:32:49.610Z,630.2
2018-11-21T09:33:52.039Z,630.1
2018-11-21T09:35:09.128Z,629.8
2018-11-21T09:36:11.270Z,629.6
2018-11-21T09:37:13.709Z,629.5
2018-11-21T09:38:16.136Z,629.7
2018-11-21T09:39:18.560Z,629.7
2018-11-21T09:40:20.977Z,629.9
2018-11-21T09:41:23.415Z,629.8
2018-11-21T09:42:25.839Z,630
2018-11-21T09:43:27.898Z,629.9
2018-11-21T09:44:30.320Z,630
2018-11-21T09:45:32.479Z,629.6
2018-11-21T09:46:34.629Z,629.8
2018-11-21T09:47:36.787Z,630
2018-11-21T09:48:38.939Z,630.1
2018-11-21T09:49:41.380Z,630.1
2018-11-21T09:50:43.804Z,629.8
2018-11-21T09:51:45.956Z,629.6
2018-11-21T09:53:53.357Z,629.8
2018-11-21T09:54:55.801Z,629.5
2018-11-21T09:55:58.237Z,629.8
2018-11-21T09:57:00.670Z,629.9
2018-11-21T09:58:03.092Z,629.9
2018-11-21T09:59:05.525Z,630.1
2018-11-21T10:00:07.967Z,630.2
2018-11-21T10:01:10.400Z,629.9
2018-11-21T10:02:12.550Z,629.9
2018-11-21T10:03:14.692Z,630.1
2018-11-21T10:04:17.126Z,629.9
2018-11-21T10:05:19.288Z,630.3
2018-11-21T10:06:21.720Z,630.2
2018-11-21T10:07:24.148Z,630.7
2018-11-21T10:08:26.307Z,630.8
2018-11-21T10:09:28.755Z,630.7
2018-11-21T10:10:31.196Z,631
2018-11-21T10:11:33.630Z,630.7
2018-11-21T10:12:35.785Z,630.8
2018-11-21T10:13:38.210Z,630.7
2018-11-21T10:14:40.382Z,630.6
2018-11-21T10:15:42.811Z,630.5
2018-11-21T10:16:45.237Z,630.9
2018-11-21T10:17:47.664Z,630.6
2018-11-21T10:18:50.097Z,630.6
2018-11-21T10:19:52.509Z,630.5
2018-11-21T10:20:54.929Z,630.3
2018-11-21T10:21:57.368Z,630.6
2018-11-21T10:22:59.784Z,629.9
2018-11-21T10:24:02.219Z,630
2018-11-21T10:25:04.688Z,630
2018-11-21T10:26:07.128Z,629.7
2018-11-21T10:27:09.551Z,629.4
2018-11-21T10:28:11.973Z,629.5
2018-11-21T10:29:14.408Z,629.7
2018-11-21T10:30:16.840Z,629.6
2018-11-21T10:31:19.279Z,629.7
2018-11-21T10:32:21.708Z,629.6
2018-11-21T10:33:24.133Z,629.5
2018-11-21T10:34:26.558Z,630.2
2018-11-21T10:35:28.992Z,630.2
2018-11-21T10:36:31.158Z,630.4
2018-11-21T10:37:33.592Z,630.2
2018-11-21T10:38:36.042Z,630.4
2018-11-21T10:39:38.195Z,630.3
2018-11-21T10:40:40.611Z,630.2
2018-11-21T10:41:43.081Z,630.2
2018-11-21T10:42:45.535Z,630.1
2018-11-21T10:43:47.962Z,630
2018-11-21T10:44:50.102Z,630
2018-11-21T10:45:52.246Z,629.9
2018-11-21T10:46:54.676Z,630.3
2018-11-21T10:47:57.109Z,630.1
2018-11-21T10:48:59.536Z,630.1
2018-11-21T10:50:01.699Z,630.5
2018-11-21T10:51:03.858Z,630.9
2018-11-21T10:52:06.287Z,630.9
2018-11-21T10:53:08.723Z,630.7
2018-11-21T10:54:11.154Z,630.9
2018-11-21T10:55:13.318Z,631.2
2018-11-21T10:56:15.758Z,631
2018-11-21T10:57:18.184Z,631.2
2018-11-21T10:58:20.607Z,631.4
2018-11-21T10:59:22.767Z,631.2
2018-11-21T11:00:25.204Z,631.1
2018-11-21T11:01:27.639Z,630.8
2018-11-21T11:02:29.778Z,630.3
2018-11-21T11:03:32.216Z,630.3
2018-11-21T11:04:34.628Z,630.2
2018-11-21T11:05:37.060Z,630
2018-11-21T11:06:39.234Z,630.1
2018-11-21T11:07:41.668Z,629.8
2018-11-21T11:08:43.824Z,629.6
2018-11-21T11:09:46.257Z,629.7
2018-11-21T11:10:48.688Z,629.2
2018-11-21T11:11:51.112Z,629.5
2018-11-21T11:12:53.546Z,628.8
2018-11-21T11:13:55.975Z,629.1
2018-11-21T11:14:58.404Z,628.6
2018-11-21T11:16:00.849Z,628.8
2018-11-21T11:17:03.271Z,628.6
2018-11-21T11:18:05.712Z,628.9
2018-11-21T11:19:08.146Z,628.6
2018-11-21T11:20:10.730Z,629.1
2018-11-21T11:21:13.401Z,628.7
2018-11-21T11:22:15.827Z,628.6
2018-11-21T11:23:18.266Z,628.3
2018-11-21T11:24:20.716Z,628.3
2018-11-21T11:25:22.864Z,627.7
2018-11-21T11:26:25.028Z,627.6
2018-11-21T11:27:26.939Z,627.6
2018-11-21T11:28:29.084Z,628.2
2018-11-21T11:29:31.261Z,627.8
2018-11-21T11:30:33.402Z,627.9
2018-11-21T11:31:35.283Z,627.6
2018-11-21T11:32:37.471Z,627.9
2018-11-21T11:33:39.647Z,628
2018-11-21T11:34:41.796Z,627.7
2018-11-21T11:35:43.955Z,627.8
2018-11-21T11:36:46.392Z,627.9
2018-11-21T11:37:48.816Z,627.9
2018-11-21T11:38:50.708Z,628
2018-11-21T11:39:52.576Z,628.2
2018-11-21T11:40:54.168Z,628.4
2018-11-21T11:41:56.590Z,628.3
2018-11-21T11:42:59.019Z,628.3
2018-11-21T11:44:01.206Z,628.3
2018-11-21T11:45:02.803Z,628.8
2018-11-21T11:46:05.233Z,628.8
2018-11-21T11:47:07.667Z,629
2018-11-21T11:48:10.093Z,629
2018-11-21T11:49:11.955Z,629.3
2018-11-21T11:50:14.100Z,629
2018-11-21T11:51:16.004Z,628.7
2018-11-21T11:52:17.894Z,628.5
2018-11-21T11:53:20.326Z,628.4
2018-11-21T11:54:22.752Z,628.2
2018-11-21T11:55:24.906Z,628.2
2018-11-21T11:56:26.812Z,628.3
2018-11-21T11:57:29.247Z,628.3
2018-11-21T11:58:31.386Z,628.6
2018-11-21T11:59:33.509Z,628.5
2018-11-21T12:00:35.944Z,628.5
2018-11-21T12:01:38.375Z,628.9
2018-11-21T12:02:40.807Z,628.6
2018-11-21T12:03:43.003Z,628.5
2018-11-21T12:04:44.575Z,628.2
2018-11-21T12:05:46.728Z,628.3
2018-11-21T12:06:48.320Z,628.2
2018-11-21T12:07:50.760Z,628.4
2018-11-21T12:08:52.941Z,628.7
2018-11-21T12:09:54.246Z,629
2018-11-21T12:10:56.414Z,629
2018-11-21T12:11:59.123Z,629.2
2018-11-21T12:13:01.348Z,629.1
2018-11-21T12:14:03.516Z,628.7
2018-11-21T12:15:05.409Z,629.2
2018-11-21T12:16:07.839Z,629.4
2018-11-21T12:17:09.177Z,629.3
2018-11-21T12:18:11.324Z,629.5
2018-11-21T12:19:13.755Z,629.4
2018-11-21T12:20:15.917Z,629.5
2018-11-21T12:21:18.079Z,629.9
2018-11-21T12:22:20.504Z,629.6
2018-11-21T12:23:22.942Z,629.4
2018-11-21T12:24:25.098Z,629.4
2018-11-21T12:25:26.991Z,629.2
2018-11-21T12:26:29.431Z,628.8
2018-11-21T12:27:31.868Z,628.6
2018-11-21T12:28:33.738Z,628.7
2018-11-21T12:29:35.631Z,628
2018-11-21T12:30:37.769Z,628.6
2018-11-21T12:31:39.924Z,628.4
2018-11-21T12:32:42.058Z,628.6
2018-11-21T12:33:44.228Z,628.3
2018-11-21T12:34:46.661Z,628.8
2018-11-21T12:35:48.819Z,628.7
2018-11-21T12:36:50.698Z,628.8
2018-11-21T12:37:52.856Z,628.5
2018-11-21T12:38:55.013Z,628.7
2018-11-21T12:39:57.437Z,628.7
2018-11-21T12:40:59.615Z,629
2018-11-21T12:42:01.786Z,628.7
2018-11-21T12:43:04.204Z,628.8
2018-11-21T12:44:06.638Z,629
2018-11-21T12:45:08.797Z,628.8
2018-11-21T12:46:10.933Z,628.8
2018-11-21T12:47:13.373Z,628.8
2018-11-21T12:48:15.804Z,628.8
2018-11-21T12:49:17.662Z,628.7
2018-11-21T12:50:20.096Z,628.6
2018-11-21T12:51:22.531Z,628.6
2018-11-21T12:52:24.991Z,628.8
2018-11-21T12:53:27.427Z,628.3
2018-11-21T12:54:29.857Z,628.6
2018-11-21T12:55:32.295Z,628.5
2018-11-21T12:56:34.716Z,628.6
2018-11-21T12:57:37.142Z,628.3
2018-11-21T12:58:39.278Z,628.3
2018-11-21T12:59:41.708Z,628
2018-11-21T13:00:43.613Z,627.9
2018-11-21T13:01:46.036Z,628.1
2018-11-21T13:02:48.466Z,627.9
2018-11-21T13:03:50.901Z,628.2
2018-11-21T13:04:53.348Z,628
2018-11-21T13:05:55.760Z,628.2
2018-11-21T13:06:58.188Z,628.4
2018-11-21T13:08:00.616Z,628.1
2018-11-21T13:09:02.781Z,628.4
2018-11-21T13:10:05.222Z,628.2
2018-11-21T13:11:07.655Z,628.1
2018-11-21T13:12:10.069Z,628.2
2018-11-21T13:13:12.496Z,627.8
2018-11-21T13:14:14.924Z,627.3
2018-11-21T13:15:17.367Z,627.6
2018-11-21T13:16:19.526Z,627.2
2018-11-21T13:17:21.956Z,627.1
2018-11-21T13:18:24.407Z,627.2
2018-11-21T13:19:26.576Z,627.2
2018-11-21T13:20:29.019Z,626.9
2018-11-21T13:21:31.466Z,626.6
2018-11-21T13:22:33.898Z,626.4
2018-11-21T13:23:35.778Z,626.4
2018-11-21T13:24:38.197Z,626.5
2018-11-21T13:25:40.640Z,626.6
2018-11-21T13:26:43.065Z,626.3
2018-11-21T13:27:45.509Z,626.2
2018-11-21T13:28:47.132Z,626.5
2018-11-21T13:29:49.571Z,626.4
2018-11-21T13:30:52.003Z,626
2018-11-21T13:31:54.148Z,626.2
2018-11-21T13:32:56.022Z,626.2
2018-11-21T13:33:58.442Z,626.4
2018-11-21T13:35:00.603Z,626.2